Latest Weather Observations for Busselton Jetty

IDW60801

Issued at 6:05 pm WST Saturday 25 October 2014 (issued every 30 minutes, with the page automatically refreshed every 10 minutes)

About weather observations | Map of weather stations | Latest weather observations for WA | Other Formats
Station Details ID: 009937 Name: BUSSELTON JETTY Lat: -33.63 Lon: 115.34 Height: 3.0 m
Data from the previous 72 hours. | See also: Recent months for locations in Western Australia
Date/Time
WST
Temp
°C
App
Temp
°C
Dew
Point
Rel
Hum
%
Delta-T
°C
Wind Press
QNH
hPa
Press
MSL
hPa
Rain
since 9 am
mm
Dir
 
Spd
km/h
Gust
km/h
Spd
kts
Gust
kts
25/06:00pm - - - - - WNW 35 39 19 21 - - -
25/05:30pm - - - - - W 39 46 21 25 - - -
25/05:00pm - - - - - WNW 37 46 20 25 - - -
25/04:30pm - - - - - WNW 35 41 19 22 - - -
25/04:00pm - - - - - WNW 33 41 18 22 - - -
25/03:30pm - - - - - WNW 35 43 19 23 - - -
25/03:00pm - - - - - WNW 37 43 20 23 - - -
25/02:30pm - - - - - WNW 35 41 19 22 - - -
25/02:00pm - - - - - WNW 37 44 20 24 - - -
25/01:30pm - - - - - WNW 39 48 21 26 - - -
25/01:00pm - - - - - WNW 32 37 17 20 - - -
25/12:31pm - - - - - NW 32 50 17 27 - - -
25/12:30pm - - - - - NW 30 39 16 21 - - -
25/12:00pm - - - - - NW 39 43 21 23 - - -
25/11:30am - - - - - NNW 35 48 19 26 - - -
25/11:00am - - - - - NNW 28 32 15 17 - - -
25/10:30am - - - - - NW 28 33 15 18 - - -
25/10:00am - - - - - NW 33 39 18 21 - - -
25/09:30am - - - - - NW 30 33 16 18 - - -
25/09:00am - - - - - WNW 28 32 15 17 - - -
25/08:30am - - - - - WNW 26 33 14 18 - - -
25/08:00am - - - - - WNW 20 26 11 14 - - -
25/07:30am - - - - - WNW 20 26 11 14 - - -
25/07:00am - - - - - WNW 26 30 14 16 - - -
25/06:30am - - - - - WNW 17 20 9 11 - - -
25/06:00am - - - - - WNW 22 26 12 14 - - -
25/05:30am - - - - - W 13 17 7 9 - - -
25/05:00am - - - - - W 13 17 7 9 - - -
25/04:30am - - - - - W 13 15 7 8 - - -
25/04:00am - - - - - WSW 13 17 7 9 - - -
25/03:30am - - - - - W 20 22 11 12 - - -
25/03:00am - - - - - N 20 24 11 13 - - -
25/02:30am - - - - - N 17 20 9 11 - - -
25/02:00am - - - - - NE 13 17 7 9 - - -
25/01:30am - - - - - SSE 11 13 6 7 - - -
25/01:00am - - - - - S 6 7 3 4 - - -
25/12:30am - - - - - S 7 7 4 4 - - -
25/12:00am - - - - - SE 7 9 4 5 - - -
 
Date/Time
WST
Temp
°C
App
Temp
°C
Dew
Point
Rel
Hum
%
Delta-T
°C
Wind Press
QNH
hPa
Press
MSL
hPa
Rain
since 9 am
mm
Dir
 
Spd
km/h
Gust
km/h
Spd
kts
Gust
kts
24/11:30pm - - - - - SSE 9 11 5 6 - - -
24/11:00pm - - - - - WSW 6 7 3 4 - - -
24/10:30pm - - - - - W 9 11 5 6 - - -
24/10:00pm - - - - - NNW 11 13 6 7 - - -
24/09:30pm - - - - - N 9 11 5 6 - - -
24/09:00pm - - - - - NNW 9 13 5 7 - - -
24/08:30pm - - - - - NW 11 15 6 8 - - -
24/08:00pm - - - - - NW 9 9 5 5 - - -
24/07:30pm - - - - - NNW 9 11 5 6 - - -
24/07:00pm - - - - - NNW 11 13 6 7 - - -
24/06:30pm - - - - - NNW 13 15 7 8 - - -
24/06:00pm - - - - - NNW 13 15 7 8 - - -
24/05:30pm - - - - - NNW 15 17 8 9 - - -
24/05:00pm - - - - - NNW 15 17 8 9 - - -
24/04:30pm - - - - - NNW 17 19 9 10 - - -
24/04:00pm - - - - - NNW 15 17 8 9 - - -
24/03:30pm - - - - - N 15 17 8 9 - - -
24/03:00pm - - - - - N 15 17 8 9 - - -
24/02:30pm - - - - - N 13 15 7 8 - - -
24/02:00pm - - - - - N 13 17 7 9 - - -
24/01:30pm - - - - - N 13 15 7 8 - - -
24/01:00pm - - - - - N 11 15 6 8 - - -
24/12:30pm - - - - - N 13 15 7 8 - - -
24/12:00pm - - - - - N 13 17 7 9 - - -
24/11:30am - - - - - N 13 17 7 9 - - -
24/11:00am - - - - - N 13 15 7 8 - - -
24/10:30am - - - - - N 13 17 7 9 - - -
24/10:00am - - - - - NNE 15 19 8 10 - - -
24/09:30am - - - - - ENE 15 20 8 11 - - -
24/09:00am - - - - - E 13 17 7 9 - - -
24/08:30am - - - - - E 17 19 9 10 - - -
24/08:00am - - - - - E 15 19 8 10 - - -
24/07:30am - - - - - E 20 24 11 13 - - -
24/07:00am - - - - - E 19 26 10 14 - - -
24/06:30am - - - - - ESE 15 19 8 10 - - -
24/06:00am - - - - - SSE 13 15 7 8 - - -
24/05:30am - - - - - S 9 13 5 7 - - -
24/05:00am - - - - - SE 15 17 8 9 - - -
24/04:30am - - - - - SSE 15 19 8 10 - - -
24/04:00am - - - - - SE 19 22 10 12 - - -
24/03:30am - - - - - SSE 17 19 9 10 - - -
24/03:00am - - - - - S 13 17 7 9 - - -
24/02:30am - - - - - S 11 15 6 8 - - -
24/02:00am - - - - - S 9 11 5 6 - - -
24/01:30am - - - - - SW 9 11 5 6 - - -
24/01:00am - - - - - SSW 11 15 6 8 - - -
24/12:30am - - - - - SW 13 17 7 9 - - -
24/12:00am - - - - - SSW 17 20 9 11 - - -
 
Date/Time
WST
Temp
°C
App
Temp
°C
Dew
Point
Rel
Hum
%
Delta-T
°C
Wind Press
QNH
hPa
Press
MSL
hPa
Rain
since 9 am
mm
Dir
 
Spd
km/h
Gust
km/h
Spd
kts
Gust
kts
23/11:30pm - - - - - SSW 19 22 10 12 - - -
23/11:00pm - - - - - SSW 15 17 8 9 - - -
23/10:30pm - - - - - SSW 15 19 8 10 - - -
23/10:00pm - - - - - SSW 20 26 11 14 - - -
23/09:30pm - - - - - SSW 17 20 9 11 - - -
23/09:00pm - - - - - SW 15 19 8 10 - - -
23/08:30pm - - - - - SW 15 19 8 10 - - -
23/08:00pm - - - - - SSW 19 24 10 13 - - -
23/07:30pm - - - - - SW 22 28 12 15 - - -
23/07:00pm - - - - - WSW 26 30 14 16 - - -
23/06:30pm - - - - - WSW 26 32 14 17 - - -
23/06:00pm - - - - - SW 24 30 13 16 - - -
23/05:30pm - - - - - SW 24 28 13 15 - - -
23/05:00pm - - - - - SSW 24 30 13 16 - - -
23/04:30pm - - - - - SW 20 32 11 17 - - -
23/04:00pm - - - - - SW 28 32 15 17 - - -
23/03:30pm - - - - - WSW 28 35 15 19 - - -
23/03:00pm - - - - - WSW 32 39 17 21 - - -
23/02:30pm - - - - - WSW 28 35 15 19 - - -
23/02:00pm - - - - - WSW 28 37 15 20 - - -
23/01:30pm - - - - - WSW 24 35 13 19 - - -
23/01:00pm - - - - - WSW 28 39 15 21 - - -
23/12:30pm - - - - - WSW 32 37 17 20 - - -
23/12:00pm - - - - - WSW 28 37 15 20 - - -
23/11:30am - - - - - W 33 39 18 21 - - -
23/11:00am - - - - - WSW 28 33 15 18 - - -
23/10:30am - - - - - WSW 35 44 19 24 - - -
23/10:00am - - - - - WSW 33 41 18 22 - - -
23/08:30am - - - - - W 26 33 14 18 - - -
23/08:00am - - - - - W 37 48 20 26 - - -
23/07:30am - - - - - WNW 33 41 18 22 - - -
23/07:00am - - - - - WNW 30 35 16 19 - - -
23/06:30am - - - - - WNW 33 37 18 20 - - -
23/06:00am - - - - - WNW 30 33 16 18 - - -
23/05:30am - - - - - WNW 33 41 18 22 - - -
23/05:00am - - - - - NW 32 37 17 20 - - -
23/04:30am - - - - - NW 33 41 18 22 - - -
23/04:00am - - - - - NW 33 37 18 20 - - -
23/03:30am - - - - - NW 32 37 17 20 - - -
23/03:00am - - - - - NW 28 30 15 16 - - -
23/02:30am - - - - - NW 30 33 16 18 - - -
23/02:00am - - - - - NW 28 32 15 17 - - -
23/01:30am - - - - - NW 32 35 17 19 - - -
23/01:00am - - - - - NNW 20 24 11 13 - - -
23/12:30am - - - - - NW 19 24 10 13 - - -
23/12:00am - - - - - WNW 22 26 12 14 - - -
 
Date/Time
WST
Temp
°C
App
Temp
°C
Dew
Point
Rel
Hum
%
Delta-T
°C
Wind Press
QNH
hPa
Press
MSL
hPa
Rain
since 9 am
mm
Dir
 
Spd
km/h
Gust
km/h
Spd
kts
Gust
kts
22/11:30pm - - - - - WNW 26 30 14 16 - - -
22/11:00pm - - - - - WNW 28 32 15 17 - - -
22/10:30pm - - - - - WNW 32 35 17 19 - - -
22/10:00pm - - - - - WNW 33 37 18 20 - - -
22/09:30pm - - - - - NW 30 35 16 19 - - -
22/09:00pm - - - - - NW 28 32 15 17 - - -
22/08:30pm - - - - - WNW 30 33 16 18 - - -
22/08:00pm - - - - - WNW 32 37 17 20 - - -
22/07:30pm - - - - - WNW 28 35 15 19 - - -
22/07:00pm - - - - - WNW 28 32 15 17 - - -
22/06:30pm - - - - - NW 30 33 16 18 - - -

Other Formats:

Comma delimited format used in spreadsheet applications
http://www.bom.gov.au/fwo/IDW60801/IDW60801.95602.axf

JavaScript Object Notation format (JSON) in row-major order
http://www.bom.gov.au/fwo/IDW60801/IDW60801.95602.json